sensor_id;sensor_type;location;lat;lon;timestamp;temperature;humidity
19232;DHT22;9750;48.730;10.294;2022-11-06T00:02:09;6.10;99.90
19232;DHT22;9750;48.730;10.294;2022-11-06T00:04:37;6.00;99.90
19232;DHT22;9750;48.730;10.294;2022-11-06T00:07:06;6.00;99.90
19232;DHT22;9750;48.730;10.294;2022-11-06T00:09:33;5.90;99.90
19232;DHT22;9750;48.730;10.294;2022-11-06T00:12:00;5.90;99.90
19232;DHT22;9750;48.730;10.294;2022-11-06T00:14:28;5.80;99.90
19232;DHT22;9750;48.730;10.294;2022-11-06T00:16:55;5.90;99.90
19232;DHT22;9750;48.730;10.294;2022-11-06T00:19:22;5.90;99.90
19232;DHT22;9750;48.730;10.294;2022-11-06T00:21:50;5.90;99.90
19232;DHT22;9750;48.730;10.294;2022-11-06T00:24:18;5.80;99.90
19232;DHT22;9750;48.730;10.294;2022-11-06T00:26:46;5.80;99.90
19232;DHT22;9750;48.730;10.294;2022-11-06T00:29:14;5.80;99.90
19232;DHT22;9750;48.730;10.294;2022-11-06T00:31:41;5.80;99.90
19232;DHT22;9750;48.730;10.294;2022-11-06T00:34:09;5.80;99.90
19232;DHT22;9750;48.730;10.294;2022-11-06T00:36:36;5.80;99.90
19232;DHT22;9750;48.730;10.294;2022-11-06T00:39:04;5.90;99.90
19232;DHT22;9750;48.730;10.294;2022-11-06T00:41:33;5.80;99.90
19232;DHT22;9750;48.730;10.294;2022-11-06T00:44:01;5.70;99.90
19232;DHT22;9750;48.730;10.294;2022-11-06T00:46:28;5.60;99.90
19232;DHT22;9750;48.730;10.294;2022-11-06T00:48:56;5.60;99.90
19232;DHT22;9750;48.730;10.294;2022-11-06T00:51:25;5.60;99.90
19232;DHT22;9750;48.730;10.294;2022-11-06T00:53:54;5.60;99.90
19232;DHT22;9750;48.730;10.294;2022-11-06T00:56:21;5.60;99.90
19232;DHT22;9750;48.730;10.294;2022-11-06T00:58:51;5.60;99.90
19232;DHT22;9750;48.730;10.294;2022-11-06T01:01:19;5.60;99.90
19232;DHT22;9750;48.730;10.294;2022-11-06T01:03:51;5.60;99.90
19232;DHT22;9750;48.730;10.294;2022-11-06T01:06:21;5.60;99.90
19232;DHT22;9750;48.730;10.294;2022-11-06T01:08:49;5.60;99.90
19232;DHT22;9750;48.730;10.294;2022-11-06T01:11:18;5.50;99.90
19232;DHT22;9750;48.730;10.294;2022-11-06T01:13:50;5.50;99.90
19232;DHT22;9750;48.730;10.294;2022-11-06T01:16:19;5.50;99.90
19232;DHT22;9750;48.730;10.294;2022-11-06T01:18:46;5.40;99.90
19232;DHT22;9750;48.730;10.294;2022-11-06T01:21:16;5.40;99.90
19232;DHT22;9750;48.730;10.294;2022-11-06T01:23:44;5.40;99.90
19232;DHT22;9750;48.730;10.294;2022-11-06T01:26:13;5.40;99.90
19232;DHT22;9750;48.730;10.294;2022-11-06T01:28:40;5.30;99.90
19232;DHT22;9750;48.730;10.294;2022-11-06T01:31:11;5.30;99.90
19232;DHT22;9750;48.730;10.294;2022-11-06T01:33:39;5.30;99.90
19232;DHT22;9750;48.730;10.294;2022-11-06T01:36:08;5.30;99.90
19232;DHT22;9750;48.730;10.294;2022-11-06T01:38:35;5.20;99.90
19232;DHT22;9750;48.730;10.294;2022-11-06T01:41:03;5.20;99.90
19232;DHT22;9750;48.730;10.294;2022-11-06T01:43:45;5.20;99.90
19232;DHT22;9750;48.730;10.294;2022-11-06T01:46:14;5.20;99.90
19232;DHT22;9750;48.730;10.294;2022-11-06T01:48:45;5.30;99.90
19232;DHT22;9750;48.730;10.294;2022-11-06T01:51:14;5.20;99.90
19232;DHT22;9750;48.730;10.294;2022-11-06T01:53:41;5.10;99.90
19232;DHT22;9750;48.730;10.294;2022-11-06T01:56:10;5.10;99.90
19232;DHT22;9750;48.730;10.294;2022-11-06T01:58:40;5.10;99.90
19232;DHT22;9750;48.730;10.294;2022-11-06T02:01:09;5.20;99.90
19232;DHT22;9750;48.730;10.294;2022-11-06T02:03:40;5.10;99.90
19232;DHT22;9750;48.730;10.294;2022-11-06T02:06:10;5.20;99.90
19232;DHT22;9750;48.730;10.294;2022-11-06T02:08:38;5.10;99.90
19232;DHT22;9750;48.730;10.294;2022-11-06T02:11:06;5.10;99.90
19232;DHT22;9750;48.730;10.294;2022-11-06T02:13:43;5.10;99.90
19232;DHT22;9750;48.730;10.294;2022-11-06T02:16:16;5.10;99.90
19232;DHT22;9750;48.730;10.294;2022-11-06T02:19:01;5.00;99.90
19232;DHT22;9750;48.730;10.294;2022-11-06T02:22:10;5.00;99.90
19232;DHT22;9750;48.730;10.294;2022-11-06T02:27:31;5.00;99.90
19232;DHT22;9750;48.730;10.294;2022-11-06T02:30:02;5.00;99.90
19232;DHT22;9750;48.730;10.294;2022-11-06T02:32:34;4.90;99.90
19232;DHT22;9750;48.730;10.294;2022-11-06T02:35:08;4.90;99.90
19232;DHT22;9750;48.730;10.294;2022-11-06T02:37:39;4.90;99.90
19232;DHT22;9750;48.730;10.294;2022-11-06T02:40:10;4.80;99.90
19232;DHT22;9750;48.730;10.294;2022-11-06T02:42:43;4.80;99.90
19232;DHT22;9750;48.730;10.294;2022-11-06T02:45:13;4.80;99.90
19232;DHT22;9750;48.730;10.294;2022-11-06T02:47:43;4.80;99.90
19232;DHT22;9750;48.730;10.294;2022-11-06T02:50:15;4.80;99.90
19232;DHT22;9750;48.730;10.294;2022-11-06T02:52:46;4.80;99.90
19232;DHT22;9750;48.730;10.294;2022-11-06T02:55:16;4.70;99.90
19232;DHT22;9750;48.730;10.294;2022-11-06T02:57:50;4.70;99.90
19232;DHT22;9750;48.730;10.294;2022-11-06T03:00:19;4.70;99.90
19232;DHT22;9750;48.730;10.294;2022-11-06T03:02:52;4.70;99.90
19232;DHT22;9750;48.730;10.294;2022-11-06T03:05:24;4.70;99.90
19232;DHT22;9750;48.730;10.294;2022-11-06T03:07:58;4.70;99.90
19232;DHT22;9750;48.730;10.294;2022-11-06T03:10:31;4.70;99.90
19232;DHT22;9750;48.730;10.294;2022-11-06T03:13:08;4.70;99.90
19232;DHT22;9750;48.730;10.294;2022-11-06T03:15:42;4.70;99.90
19232;DHT22;9750;48.730;10.294;2022-11-06T03:18:14;4.60;99.90
19232;DHT22;9750;48.730;10.294;2022-11-06T03:20:50;4.60;99.90
19232;DHT22;9750;48.730;10.294;2022-11-06T03:23:25;4.60;99.90
19232;DHT22;9750;48.730;10.294;2022-11-06T03:25:57;4.60;99.90
19232;DHT22;9750;48.730;10.294;2022-11-06T03:28:30;4.60;99.90
19232;DHT22;9750;48.730;10.294;2022-11-06T03:31:01;4.50;99.90
19232;DHT22;9750;48.730;10.294;2022-11-06T03:33:33;4.50;99.90
19232;DHT22;9750;48.730;10.294;2022-11-06T03:36:07;4.50;99.90
19232;DHT22;9750;48.730;10.294;2022-11-06T03:38:38;4.60;99.90
19232;DHT22;9750;48.730;10.294;2022-11-06T03:41:10;4.50;99.90
19232;DHT22;9750;48.730;10.294;2022-11-06T03:43:41;4.50;99.90
19232;DHT22;9750;48.730;10.294;2022-11-06T03:46:14;4.50;99.90
19232;DHT22;9750;48.730;10.294;2022-11-06T03:48:47;4.50;99.90
19232;DHT22;9750;48.730;10.294;2022-11-06T03:51:18;4.50;99.90
19232;DHT22;9750;48.730;10.294;2022-11-06T03:53:48;4.50;99.90
19232;DHT22;9750;48.730;10.294;2022-11-06T03:56:20;4.50;99.90
19232;DHT22;9750;48.730;10.294;2022-11-06T03:58:51;4.50;99.90
19232;DHT22;9750;48.730;10.294;2022-11-06T04:01:22;4.60;99.90
19232;DHT22;9750;48.730;10.294;2022-11-06T04:03:55;4.50;99.90
19232;DHT22;9750;48.730;10.294;2022-11-06T04:06:27;4.50;99.90
19232;DHT22;9750;48.730;10.294;2022-11-06T04:09:00;4.50;99.90
19232;DHT22;9750;48.730;10.294;2022-11-06T04:11:47;4.40;99.90
19232;DHT22;9750;48.730;10.294;2022-11-06T04:14:36;4.40;99.90
19232;DHT22;9750;48.730;10.294;2022-11-06T04:17:07;4.50;99.90
19232;DHT22;9750;48.730;10.294;2022-11-06T04:19:37;4.50;99.90
19232;DHT22;9750;48.730;10.294;2022-11-06T04:22:19;4.60;99.90
19232;DHT22;9750;48.730;10.294;2022-11-06T04:25:00;4.60;99.90
19232;DHT22;9750;48.730;10.294;2022-11-06T04:28:07;4.70;99.90
19232;DHT22;9750;48.730;10.294;2022-11-06T04:30:44;4.50;99.90
19232;DHT22;9750;48.730;10.294;2022-11-06T04:33:18;4.30;99.90
19232;DHT22;9750;48.730;10.294;2022-11-06T04:35:56;4.30;99.90
19232;DHT22;9750;48.730;10.294;2022-11-06T04:38:31;4.20;99.90
19232;DHT22;9750;48.730;10.294;2022-11-06T04:41:07;4.20;99.90
19232;DHT22;9750;48.730;10.294;2022-11-06T04:43:42;4.20;99.90
19232;DHT22;9750;48.730;10.294;2022-11-06T04:46:17;4.20;99.90
19232;DHT22;9750;48.730;10.294;2022-11-06T04:48:46;4.20;99.90
19232;DHT22;9750;48.730;10.294;2022-11-06T04:51:14;4.20;99.90
19232;DHT22;9750;48.730;10.294;2022-11-06T04:53:45;4.20;99.90
19232;DHT22;9750;48.730;10.294;2022-11-06T04:56:20;4.10;99.90
19232;DHT22;9750;48.730;10.294;2022-11-06T04:58:48;4.10;99.90
19232;DHT22;9750;48.730;10.294;2022-11-06T05:01:17;4.10;99.90
19232;DHT22;9750;48.730;10.294;2022-11-06T05:03:44;4.10;99.90
19232;DHT22;9750;48.730;10.294;2022-11-06T05:06:12;4.10;99.90
19232;DHT22;9750;48.730;10.294;2022-11-06T05:08:40;4.10;99.90
19232;DHT22;9750;48.730;10.294;2022-11-06T05:11:07;4.10;99.90
19232;DHT22;9750;48.730;10.294;2022-11-06T05:13:35;4.10;99.90
19232;DHT22;9750;48.730;10.294;2022-11-06T05:16:03;4.00;99.90
19232;DHT22;9750;48.730;10.294;2022-11-06T05:18:32;4.00;99.90
19232;DHT22;9750;48.730;10.294;2022-11-06T05:21:00;4.00;99.90
19232;DHT22;9750;48.730;10.294;2022-11-06T05:23:45;4.00;99.90
19232;DHT22;9750;48.730;10.294;2022-11-06T05:26:13;4.00;99.90
19232;DHT22;9750;48.730;10.294;2022-11-06T05:28:40;4.00;99.90
19232;DHT22;9750;48.730;10.294;2022-11-06T05:31:08;4.00;99.90
19232;DHT22;9750;48.730;10.294;2022-11-06T05:33:37;4.00;99.90
19232;DHT22;9750;48.730;10.294;2022-11-06T05:36:05;3.90;99.90
19232;DHT22;9750;48.730;10.294;2022-11-06T05:38:33;4.00;99.90
19232;DHT22;9750;48.730;10.294;2022-11-06T05:41:00;4.10;99.90
19232;DHT22;9750;48.730;10.294;2022-11-06T05:43:27;4.10;99.90
19232;DHT22;9750;48.730;10.294;2022-11-06T05:45:55;4.10;99.90
19232;DHT22;9750;48.730;10.294;2022-11-06T05:48:22;3.90;99.90
19232;DHT22;9750;48.730;10.294;2022-11-06T05:50:51;3.70;99.90
19232;DHT22;9750;48.730;10.294;2022-11-06T05:53:18;3.60;99.90
19232;DHT22;9750;48.730;10.294;2022-11-06T05:55:45;3.50;99.90
19232;DHT22;9750;48.730;10.294;2022-11-06T05:58:13;3.50;99.90
19232;DHT22;9750;48.730;10.294;2022-11-06T06:00:40;3.50;99.90
19232;DHT22;9750;48.730;10.294;2022-11-06T06:03:08;3.60;99.90
19232;DHT22;9750;48.730;10.294;2022-11-06T06:05:35;3.60;99.90
19232;DHT22;9750;48.730;10.294;2022-11-06T06:08:04;3.50;99.90
19232;DHT22;9750;48.730;10.294;2022-11-06T06:13:54;3.20;99.90
19232;DHT22;9750;48.730;10.294;2022-11-06T06:16:21;3.20;99.90
19232;DHT22;9750;48.730;10.294;2022-11-06T06:18:48;3.10;99.90
19232;DHT22;9750;48.730;10.294;2022-11-06T06:21:16;3.10;99.90
19232;DHT22;9750;48.730;10.294;2022-11-06T06:23:45;3.20;99.90
19232;DHT22;9750;48.730;10.294;2022-11-06T06:26:13;3.20;99.90
19232;DHT22;9750;48.730;10.294;2022-11-06T06:28:40;3.10;99.90
19232;DHT22;9750;48.730;10.294;2022-11-06T06:31:08;3.00;99.90
19232;DHT22;9750;48.730;10.294;2022-11-06T06:33:35;2.80;99.90
19232;DHT22;9750;48.730;10.294;2022-11-06T06:36:03;2.70;99.90
19232;DHT22;9750;48.730;10.294;2022-11-06T06:38:31;2.80;99.90
19232;DHT22;9750;48.730;10.294;2022-11-06T06:41:04;2.90;99.90
19232;DHT22;9750;48.730;10.294;2022-11-06T06:43:32;3.00;99.90
19232;DHT22;9750;48.730;10.294;2022-11-06T06:46:01;3.10;99.90
19232;DHT22;9750;48.730;10.294;2022-11-06T06:48:29;3.20;99.90
19232;DHT22;9750;48.730;10.294;2022-11-06T06:50:57;3.20;99.90
19232;DHT22;9750;48.730;10.294;2022-11-06T06:53:25;3.30;99.90
19232;DHT22;9750;48.730;10.294;2022-11-06T06:55:52;3.30;99.90
19232;DHT22;9750;48.730;10.294;2022-11-06T06:58:21;3.40;99.90
19232;DHT22;9750;48.730;10.294;2022-11-06T07:00:48;3.40;99.90
19232;DHT22;9750;48.730;10.294;2022-11-06T07:03:16;3.50;99.90
19232;DHT22;9750;48.730;10.294;2022-11-06T07:05:43;3.50;99.90
19232;DHT22;9750;48.730;10.294;2022-11-06T07:08:11;3.50;99.90
19232;DHT22;9750;48.730;10.294;2022-11-06T07:10:39;3.60;99.90
19232;DHT22;9750;48.730;10.294;2022-11-06T07:13:06;3.70;99.90
19232;DHT22;9750;48.730;10.294;2022-11-06T07:15:35;3.80;99.90
19232;DHT22;9750;48.730;10.294;2022-11-06T07:18:02;3.80;99.90
19232;DHT22;9750;48.730;10.294;2022-11-06T07:20:30;3.80;99.90
19232;DHT22;9750;48.730;10.294;2022-11-06T07:22:58;3.90;99.90
19232;DHT22;9750;48.730;10.294;2022-11-06T07:25:25;3.90;99.90
19232;DHT22;9750;48.730;10.294;2022-11-06T07:27:53;3.90;99.90
19232;DHT22;9750;48.730;10.294;2022-11-06T07:30:20;3.80;99.90
19232;DHT22;9750;48.730;10.294;2022-11-06T07:32:49;3.80;99.90
19232;DHT22;9750;48.730;10.294;2022-11-06T07:35:16;3.80;99.90
19232;DHT22;9750;48.730;10.294;2022-11-06T07:37:44;3.80;99.90
19232;DHT22;9750;48.730;10.294;2022-11-06T07:40:11;3.80;99.90
19232;DHT22;9750;48.730;10.294;2022-11-06T07:42:39;3.90;99.90
19232;DHT22;9750;48.730;10.294;2022-11-06T07:45:07;3.90;99.90
19232;DHT22;9750;48.730;10.294;2022-11-06T07:47:35;4.00;99.90
19232;DHT22;9750;48.730;10.294;2022-11-06T07:50:04;4.00;99.90
19232;DHT22;9750;48.730;10.294;2022-11-06T07:52:32;4.00;99.90
19232;DHT22;9750;48.730;10.294;2022-11-06T07:54:59;4.00;99.90
19232;DHT22;9750;48.730;10.294;2022-11-06T07:57:27;4.10;99.90
19232;DHT22;9750;48.730;10.294;2022-11-06T07:59:54;4.20;99.90
19232;DHT22;9750;48.730;10.294;2022-11-06T08:02:21;4.20;99.90
19232;DHT22;9750;48.730;10.294;2022-11-06T08:04:49;4.30;99.90
19232;DHT22;9750;48.730;10.294;2022-11-06T08:07:17;4.30;99.90
19232;DHT22;9750;48.730;10.294;2022-11-06T08:09:45;4.40;99.90
19232;DHT22;9750;48.730;10.294;2022-11-06T08:12:12;4.40;99.90
19232;DHT22;9750;48.730;10.294;2022-11-06T08:14:40;4.40;99.90
19232;DHT22;9750;48.730;10.294;2022-11-06T08:17:07;4.40;99.90
19232;DHT22;9750;48.730;10.294;2022-11-06T08:23:03;4.50;99.90
19232;DHT22;9750;48.730;10.294;2022-11-06T08:25:30;4.60;99.90
19232;DHT22;9750;48.730;10.294;2022-11-06T08:27:59;4.70;99.90
19232;DHT22;9750;48.730;10.294;2022-11-06T08:30:28;4.70;99.90
19232;DHT22;9750;48.730;10.294;2022-11-06T08:33:00;4.80;99.90
19232;DHT22;9750;48.730;10.294;2022-11-06T08:35:28;4.80;99.90
19232;DHT22;9750;48.730;10.294;2022-11-06T08:37:55;4.90;99.90
19232;DHT22;9750;48.730;10.294;2022-11-06T08:40:24;5.00;99.90
19232;DHT22;9750;48.730;10.294;2022-11-06T08:42:51;5.00;99.90
19232;DHT22;9750;48.730;10.294;2022-11-06T08:45:19;5.10;99.90
19232;DHT22;9750;48.730;10.294;2022-11-06T08:47:46;5.10;99.90
19232;DHT22;9750;48.730;10.294;2022-11-06T08:50:13;5.20;99.90
19232;DHT22;9750;48.730;10.294;2022-11-06T08:52:41;5.20;99.90
19232;DHT22;9750;48.730;10.294;2022-11-06T08:55:08;5.30;99.90
19232;DHT22;9750;48.730;10.294;2022-11-06T08:57:37;5.30;99.90
19232;DHT22;9750;48.730;10.294;2022-11-06T09:00:24;5.40;99.90
19232;DHT22;9750;48.730;10.294;2022-11-06T09:02:57;5.40;99.90
19232;DHT22;9750;48.730;10.294;2022-11-06T09:05:24;5.50;99.90
19232;DHT22;9750;48.730;10.294;2022-11-06T09:07:52;5.50;99.90
19232;DHT22;9750;48.730;10.294;2022-11-06T09:10:19;5.60;99.90
19232;DHT22;9750;48.730;10.294;2022-11-06T09:12:48;5.60;99.90
19232;DHT22;9750;48.730;10.294;2022-11-06T09:15:16;5.70;99.90
19232;DHT22;9750;48.730;10.294;2022-11-06T09:17:44;5.70;99.90
19232;DHT22;9750;48.730;10.294;2022-11-06T09:20:14;5.80;99.90
19232;DHT22;9750;48.730;10.294;2022-11-06T09:22:42;5.80;99.90
19232;DHT22;9750;48.730;10.294;2022-11-06T09:25:10;5.80;99.90
19232;DHT22;9750;48.730;10.294;2022-11-06T09:27:41;5.90;99.90
19232;DHT22;9750;48.730;10.294;2022-11-06T09:30:12;5.90;99.90
19232;DHT22;9750;48.730;10.294;2022-11-06T09:32:44;6.00;99.90
19232;DHT22;9750;48.730;10.294;2022-11-06T09:35:12;6.00;99.90
19232;DHT22;9750;48.730;10.294;2022-11-06T09:37:40;6.00;99.90
19232;DHT22;9750;48.730;10.294;2022-11-06T09:40:18;6.10;99.90
19232;DHT22;9750;48.730;10.294;2022-11-06T09:42:55;6.10;99.90
19232;DHT22;9750;48.730;10.294;2022-11-06T09:45:29;6.10;99.90
19232;DHT22;9750;48.730;10.294;2022-11-06T09:48:03;6.20;99.90
19232;DHT22;9750;48.730;10.294;2022-11-06T09:50:36;6.20;99.90
19232;DHT22;9750;48.730;10.294;2022-11-06T09:53:09;6.30;99.90
19232;DHT22;9750;48.730;10.294;2022-11-06T09:55:40;6.40;99.90
19232;DHT22;9750;48.730;10.294;2022-11-06T09:58:12;6.40;99.90
19232;DHT22;9750;48.730;10.294;2022-11-06T10:00:42;6.40;99.90
19232;DHT22;9750;48.730;10.294;2022-11-06T10:03:15;6.40;99.90
19232;DHT22;9750;48.730;10.294;2022-11-06T10:05:45;6.50;99.90
19232;DHT22;9750;48.730;10.294;2022-11-06T10:08:16;6.40;99.90
19232;DHT22;9750;48.730;10.294;2022-11-06T10:10:53;6.50;99.90
19232;DHT22;9750;48.730;10.294;2022-11-06T10:13:32;6.50;99.90
19232;DHT22;9750;48.730;10.294;2022-11-06T10:16:08;6.50;99.90
19232;DHT22;9750;48.730;10.294;2022-11-06T10:18:46;6.60;99.90
19232;DHT22;9750;48.730;10.294;2022-11-06T10:21:22;6.60;99.90
19232;DHT22;9750;48.730;10.294;2022-11-06T10:23:52;6.60;99.90
19232;DHT22;9750;48.730;10.294;2022-11-06T10:26:26;6.60;99.90
19232;DHT22;9750;48.730;10.294;2022-11-06T10:31:55;6.60;99.90
19232;DHT22;9750;48.730;10.294;2022-11-06T10:34:30;6.60;99.90
19232;DHT22;9750;48.730;10.294;2022-11-06T10:37:04;6.60;99.90
19232;DHT22;9750;48.730;10.294;2022-11-06T10:39:35;6.70;99.90
19232;DHT22;9750;48.730;10.294;2022-11-06T10:42:06;6.70;99.90
19232;DHT22;9750;48.730;10.294;2022-11-06T10:44:37;6.70;99.90
19232;DHT22;9750;48.730;10.294;2022-11-06T10:47:11;6.70;99.90
19232;DHT22;9750;48.730;10.294;2022-11-06T10:49:45;6.80;99.90
19232;DHT22;9750;48.730;10.294;2022-11-06T10:52:33;6.80;99.90
19232;DHT22;9750;48.730;10.294;2022-11-06T10:55:34;6.80;99.90
19232;DHT22;9750;48.730;10.294;2022-11-06T10:58:07;6.80;99.90
19232;DHT22;9750;48.730;10.294;2022-11-06T11:03:59;6.90;99.90
19232;DHT22;9750;48.730;10.294;2022-11-06T11:06:27;6.90;99.90
19232;DHT22;9750;48.730;10.294;2022-11-06T11:08:54;6.90;99.90
19232;DHT22;9750;48.730;10.294;2022-11-06T11:11:23;6.90;99.90
19232;DHT22;9750;48.730;10.294;2022-11-06T11:14:12;7.00;99.90
19232;DHT22;9750;48.730;10.294;2022-11-06T11:16:42;7.00;99.90
19232;DHT22;9750;48.730;10.294;2022-11-06T11:19:32;7.00;99.90
19232;DHT22;9750;48.730;10.294;2022-11-06T11:22:01;7.00;99.90
19232;DHT22;9750;48.730;10.294;2022-11-06T11:24:29;7.00;99.90
19232;DHT22;9750;48.730;10.294;2022-11-06T11:27:00;7.10;99.90
19232;DHT22;9750;48.730;10.294;2022-11-06T11:29:30;7.20;99.90
19232;DHT22;9750;48.730;10.294;2022-11-06T11:32:01;7.10;99.90
19232;DHT22;9750;48.730;10.294;2022-11-06T11:34:32;7.20;99.90
19232;DHT22;9750;48.730;10.294;2022-11-06T11:37:02;7.20;99.90
19232;DHT22;9750;48.730;10.294;2022-11-06T11:39:31;7.20;99.90
19232;DHT22;9750;48.730;10.294;2022-11-06T11:42:22;7.30;99.90
19232;DHT22;9750;48.730;10.294;2022-11-06T11:45:13;7.20;99.90
19232;DHT22;9750;48.730;10.294;2022-11-06T11:47:42;7.30;99.90
19232;DHT22;9750;48.730;10.294;2022-11-06T11:50:26;7.30;99.90
19232;DHT22;9750;48.730;10.294;2022-11-06T11:53:02;7.30;99.90
19232;DHT22;9750;48.730;10.294;2022-11-06T11:55:36;7.30;99.90
19232;DHT22;9750;48.730;10.294;2022-11-06T11:58:16;7.30;99.90
19232;DHT22;9750;48.730;10.294;2022-11-06T12:00:51;7.30;99.90
19232;DHT22;9750;48.730;10.294;2022-11-06T12:03:19;7.40;99.90
19232;DHT22;9750;48.730;10.294;2022-11-06T12:05:49;7.40;99.90
19232;DHT22;9750;48.730;10.294;2022-11-06T12:08:23;7.50;99.90
19232;DHT22;9750;48.730;10.294;2022-11-06T12:10:51;7.50;99.90
19232;DHT22;9750;48.730;10.294;2022-11-06T12:13:20;7.50;99.90
19232;DHT22;9750;48.730;10.294;2022-11-06T12:15:50;7.60;99.90
19232;DHT22;9750;48.730;10.294;2022-11-06T12:18:24;7.60;99.90
19232;DHT22;9750;48.730;10.294;2022-11-06T12:20:56;7.60;99.90
19232;DHT22;9750;48.730;10.294;2022-11-06T12:23:29;7.60;99.90
19232;DHT22;9750;48.730;10.294;2022-11-06T12:26:04;7.70;99.90
19232;DHT22;9750;48.730;10.294;2022-11-06T12:28:34;7.70;99.90
19232;DHT22;9750;48.730;10.294;2022-11-06T12:31:22;7.70;99.90
19232;DHT22;9750;48.730;10.294;2022-11-06T12:33:55;7.70;99.90
19232;DHT22;9750;48.730;10.294;2022-11-06T12:36:28;7.70;99.90
19232;DHT22;9750;48.730;10.294;2022-11-06T12:39:05;7.80;99.90
19232;DHT22;9750;48.730;10.294;2022-11-06T12:41:39;7.80;99.90
19232;DHT22;9750;48.730;10.294;2022-11-06T12:44:10;7.80;99.90
19232;DHT22;9750;48.730;10.294;2022-11-06T12:46:43;7.90;99.90
19232;DHT22;9750;48.730;10.294;2022-11-06T12:49:30;7.90;99.90
19232;DHT22;9750;48.730;10.294;2022-11-06T12:52:24;7.90;99.90
19232;DHT22;9750;48.730;10.294;2022-11-06T12:55:10;8.00;99.90
19232;DHT22;9750;48.730;10.294;2022-11-06T12:57:49;8.00;99.90
19232;DHT22;9750;48.730;10.294;2022-11-06T13:00:20;8.10;99.90
19232;DHT22;9750;48.730;10.294;2022-11-06T13:05:50;8.10;99.90
19232;DHT22;9750;48.730;10.294;2022-11-06T13:08:29;8.10;99.90
19232;DHT22;9750;48.730;10.294;2022-11-06T13:11:12;8.10;99.90
19232;DHT22;9750;48.730;10.294;2022-11-06T13:13:51;8.20;99.90
19232;DHT22;9750;48.730;10.294;2022-11-06T13:16:32;8.20;99.90
19232;DHT22;9750;48.730;10.294;2022-11-06T13:19:08;8.20;99.90
19232;DHT22;9750;48.730;10.294;2022-11-06T13:21:59;8.20;99.90
19232;DHT22;9750;48.730;10.294;2022-11-06T13:24:32;8.30;99.90
19232;DHT22;9750;48.730;10.294;2022-11-06T13:27:06;8.20;99.90
19232;DHT22;9750;48.730;10.294;2022-11-06T13:29:35;8.30;99.90
19232;DHT22;9750;48.730;10.294;2022-11-06T13:32:07;8.30;99.90
19232;DHT22;9750;48.730;10.294;2022-11-06T13:34:38;8.20;99.90
19232;DHT22;9750;48.730;10.294;2022-11-06T13:37:12;8.30;99.90
19232;DHT22;9750;48.730;10.294;2022-11-06T13:39:44;8.40;99.90
19232;DHT22;9750;48.730;10.294;2022-11-06T13:42:20;8.40;99.90
19232;DHT22;9750;48.730;10.294;2022-11-06T13:44:48;8.40;99.90
19232;DHT22;9750;48.730;10.294;2022-11-06T13:47:18;8.30;99.90
19232;DHT22;9750;48.730;10.294;2022-11-06T13:53:16;8.40;99.90
19232;DHT22;9750;48.730;10.294;2022-11-06T13:55:57;8.40;99.90
19232;DHT22;9750;48.730;10.294;2022-11-06T13:59:12;8.40;99.90
19232;DHT22;9750;48.730;10.294;2022-11-06T14:01:52;8.40;99.90
19232;DHT22;9750;48.730;10.294;2022-11-06T14:04:38;8.40;99.90
19232;DHT22;9750;48.730;10.294;2022-11-06T14:07:09;8.40;99.90
19232;DHT22;9750;48.730;10.294;2022-11-06T14:09:41;8.40;99.90
19232;DHT22;9750;48.730;10.294;2022-11-06T14:12:16;8.30;99.90
19232;DHT22;9750;48.730;10.294;2022-11-06T14:14:45;8.30;99.90
19232;DHT22;9750;48.730;10.294;2022-11-06T14:17:19;8.30;99.90
19232;DHT22;9750;48.730;10.294;2022-11-06T14:20:02;8.30;99.90
19232;DHT22;9750;48.730;10.294;2022-11-06T14:22:31;8.30;99.90
19232;DHT22;9750;48.730;10.294;2022-11-06T14:28:09;8.30;99.90
19232;DHT22;9750;48.730;10.294;2022-11-06T14:30:42;8.30;99.90
19232;DHT22;9750;48.730;10.294;2022-11-06T14:35:54;8.30;99.90
19232;DHT22;9750;48.730;10.294;2022-11-06T14:38:33;8.30;99.90
19232;DHT22;9750;48.730;10.294;2022-11-06T14:41:21;8.30;99.90
19232;DHT22;9750;48.730;10.294;2022-11-06T14:43:58;8.40;99.90
19232;DHT22;9750;48.730;10.294;2022-11-06T14:46:27;8.30;99.90
19232;DHT22;9750;48.730;10.294;2022-11-06T14:49:05;8.30;99.90
19232;DHT22;9750;48.730;10.294;2022-11-06T14:51:34;8.30;99.90
19232;DHT22;9750;48.730;10.294;2022-11-06T14:54:12;8.30;99.90
19232;DHT22;9750;48.730;10.294;2022-11-06T14:56:43;8.30;99.90
19232;DHT22;9750;48.730;10.294;2022-11-06T14:59:21;8.30;99.90
19232;DHT22;9750;48.730;10.294;2022-11-06T15:01:55;8.30;99.90
19232;DHT22;9750;48.730;10.294;2022-11-06T15:04:25;8.30;99.90
19232;DHT22;9750;48.730;10.294;2022-11-06T15:06:54;8.30;99.90
19232;DHT22;9750;48.730;10.294;2022-11-06T15:09:45;8.30;99.90
19232;DHT22;9750;48.730;10.294;2022-11-06T15:12:12;8.30;99.90
19232;DHT22;9750;48.730;10.294;2022-11-06T15:15:01;8.30;99.90
19232;DHT22;9750;48.730;10.294;2022-11-06T15:17:34;8.30;99.90
19232;DHT22;9750;48.730;10.294;2022-11-06T15:20:21;8.30;99.90
19232;DHT22;9750;48.730;10.294;2022-11-06T15:22:58;8.30;99.90
19232;DHT22;9750;48.730;10.294;2022-11-06T15:25:27;8.20;99.90
19232;DHT22;9750;48.730;10.294;2022-11-06T15:27:58;8.20;99.90
19232;DHT22;9750;48.730;10.294;2022-11-06T15:30:36;8.20;99.90
19232;DHT22;9750;48.730;10.294;2022-11-06T15:33:10;8.20;99.90
19232;DHT22;9750;48.730;10.294;2022-11-06T15:35:39;8.10;99.90
19232;DHT22;9750;48.730;10.294;2022-11-06T15:38:12;8.10;99.90
19232;DHT22;9750;48.730;10.294;2022-11-06T15:40:42;8.10;99.90
19232;DHT22;9750;48.730;10.294;2022-11-06T15:43:23;8.10;99.90
19232;DHT22;9750;48.730;10.294;2022-11-06T15:46:19;8.00;99.90
19232;DHT22;9750;48.730;10.294;2022-11-06T15:48:48;8.00;99.90
19232;DHT22;9750;48.730;10.294;2022-11-06T15:51:31;8.00;99.90
19232;DHT22;9750;48.730;10.294;2022-11-06T15:53:59;8.00;99.90
19232;DHT22;9750;48.730;10.294;2022-11-06T15:56:29;8.00;99.90
19232;DHT22;9750;48.730;10.294;2022-11-06T15:59:10;8.00;99.90
19232;DHT22;9750;48.730;10.294;2022-11-06T16:01:39;7.90;99.90
19232;DHT22;9750;48.730;10.294;2022-11-06T16:04:12;7.90;99.90
19232;DHT22;9750;48.730;10.294;2022-11-06T16:06:41;7.90;99.90
19232;DHT22;9750;48.730;10.294;2022-11-06T16:09:14;7.90;99.90
19232;DHT22;9750;48.730;10.294;2022-11-06T16:11:44;7.90;99.90
19232;DHT22;9750;48.730;10.294;2022-11-06T16:14:12;7.90;99.90
19232;DHT22;9750;48.730;10.294;2022-11-06T16:16:44;7.80;99.90
19232;DHT22;9750;48.730;10.294;2022-11-06T16:19:28;7.80;99.90
19232;DHT22;9750;48.730;10.294;2022-11-06T16:21:59;7.80;99.90
19232;DHT22;9750;48.730;10.294;2022-11-06T16:24:29;7.80;99.90
19232;DHT22;9750;48.730;10.294;2022-11-06T16:26:58;7.80;99.90
19232;DHT22;9750;48.730;10.294;2022-11-06T16:29:28;7.80;99.90
19232;DHT22;9750;48.730;10.294;2022-11-06T16:32:02;7.80;99.90
19232;DHT22;9750;48.730;10.294;2022-11-06T16:34:35;7.80;99.90
19232;DHT22;9750;48.730;10.294;2022-11-06T16:37:05;7.80;99.90
19232;DHT22;9750;48.730;10.294;2022-11-06T16:39:47;7.80;99.90
19232;DHT22;9750;48.730;10.294;2022-11-06T16:42:33;7.80;99.90
19232;DHT22;9750;48.730;10.294;2022-11-06T16:45:13;7.80;99.90